createdAt,value
2018-08-12T00:06:03.828Z,62.99
2018-08-12T00:16:34.500Z,63.28
2018-08-12T00:22:06.941Z,63.54
2018-08-12T00:27:29.018Z,64.42
2018-08-12T00:32:45.121Z,64.24
2018-08-12T00:38:05.788Z,64.78
2018-08-12T00:43:22.936Z,64.84
2018-08-12T00:48:36.883Z,64.45
2018-08-12T00:53:56.185Z,64.56
2018-08-12T01:01:28.978Z,65.01
2018-08-12T01:06:36.390Z,64.89
2018-08-12T01:11:55.891Z,65.91
2018-08-12T01:17:07.399Z,66.00
2018-08-12T01:22:20.576Z,66.38
2018-08-12T01:27:28.693Z,66.37
2018-08-12T01:33:04.466Z,66.15
2018-08-12T01:38:19.841Z,66.40
2018-08-12T01:43:42.962Z,66.91
2018-08-12T01:55:22.935Z,67.30
2018-08-12T02:07:25.555Z,67.42
2018-08-12T02:12:59.674Z,67.68
2018-08-12T02:18:28.112Z,68.52
2018-08-12T02:23:41.025Z,68.21
2018-08-12T02:28:57.231Z,67.71
2018-08-12T02:36:23.236Z,67.73
2018-08-12T02:41:44.614Z,68.11
2018-08-12T02:47:00.185Z,68.04
2018-08-12T02:52:12.484Z,68.27
2018-08-12T02:57:36.142Z,68.36
2018-08-12T03:03:02.357Z,68.54
2018-08-12T03:08:15.333Z,68.94
2018-08-12T03:19:17.971Z,68.77
2018-08-12T03:24:35.338Z,69.09
2018-08-12T03:29:53.423Z,69.84
2018-08-12T03:35:13.862Z,69.53
2018-08-12T03:40:35.196Z,70.02
2018-08-12T03:45:48.759Z,69.92
2018-08-12T03:57:11.744Z,69.15
2018-08-12T04:02:40.036Z,69.32
2018-08-12T04:07:52.522Z,69.24
2018-08-12T04:13:06.763Z,69.51
2018-08-12T04:18:18.743Z,69.58
2018-08-12T04:23:40.497Z,69.54
2018-08-12T04:31:27.762Z,68.76
2018-08-12T04:36:44.092Z,69.16
2018-08-12T04:41:57.902Z,68.73
2018-08-12T04:47:13.666Z,68.94
2018-08-12T04:52:27.062Z,68.55
2018-08-12T04:57:31.472Z,68.72
2018-08-12T05:02:35.857Z,68.20
2018-08-12T05:07:44.520Z,68.50
2018-08-12T05:12:51.318Z,68.45
2018-08-12T05:18:05.452Z,67.80
2018-08-12T05:23:15.695Z,67.78
2018-08-12T05:28:24.975Z,67.62
2018-08-12T05:33:27.132Z,67.90
2018-08-12T05:38:30.217Z,67.42
2018-08-12T05:43:32.520Z,67.36
2018-08-12T05:48:34.703Z,67.39
2018-08-12T05:53:38.812Z,67.51
2018-08-12T05:58:43.576Z,67.30
2018-08-12T06:03:48.357Z,66.56
2018-08-12T06:08:53.460Z,66.33
2018-08-12T06:13:57.928Z,65.75
2018-08-12T06:19:12.820Z,65.71
2018-08-12T06:24:24.426Z,66.02
2018-08-12T06:29:42.235Z,65.96
2018-08-12T06:34:52.879Z,66.04
2018-08-12T06:40:05.504Z,65.60
2018-08-12T06:45:10.862Z,65.06
2018-08-12T06:50:13.062Z,63.93
2018-08-12T06:55:15.201Z,63.83
2018-08-12T07:00:22.160Z,63.92
2018-08-12T07:05:30.070Z,62.19
2018-08-12T07:10:36.397Z,62.55
2018-08-12T07:15:42.595Z,60.64
2018-08-12T07:20:51.381Z,60.65
2018-08-12T07:25:54.878Z,59.56
2018-08-12T07:30:57.076Z,58.78
2018-08-12T07:35:59.262Z,58.10
2018-08-12T07:41:01.497Z,58.12
2018-08-12T07:46:06.524Z,58.15
2018-08-12T07:51:10.726Z,59.43
2018-08-12T07:56:12.963Z,58.04
2018-08-12T08:01:15.164Z,57.47
2018-08-12T08:06:17.477Z,59.17
2018-08-12T08:11:19.655Z,56.22
2018-08-12T08:27:26.235Z,56.10
2018-08-12T08:32:44.543Z,56.09
2018-08-12T08:38:03.726Z,54.97
2018-08-12T08:43:15.281Z,56.09
2018-08-12T08:48:37.465Z,55.27
2018-08-12T08:53:40.644Z,54.34
2018-08-12T08:58:42.847Z,54.14
2018-08-12T09:04:00.897Z,54.40
2018-08-12T09:09:36.534Z,54.67
2018-08-12T09:14:53.386Z,52.46
2018-08-12T09:20:15.207Z,52.65
2018-08-12T09:25:27.872Z,53.12
2018-08-12T09:30:43.024Z,50.84
2018-08-12T09:35:56.925Z,49.90
2018-08-12T09:41:06.195Z,50.33
2018-08-12T09:46:18.358Z,47.92
2018-08-12T09:51:35.620Z,45.65
2018-08-12T09:56:40.816Z,44.14
2018-08-12T10:01:51.040Z,45.09
2018-08-12T10:06:59.026Z,41.87
2018-08-12T10:12:01.801Z,43.54
2018-08-12T10:17:05.726Z,44.84
2018-08-12T10:22:10.857Z,39.19
2018-08-12T10:27:14.557Z,39.82
2018-08-12T10:32:19.088Z,38.11
2018-08-12T10:37:24.630Z,39.19
2018-08-12T10:42:28.002Z,40.07
2018-08-12T10:47:30.484Z,40.46
2018-08-12T10:52:32.669Z,39.59
2018-08-12T10:57:35.069Z,41.36
2018-08-12T11:02:41.200Z,41.82
2018-08-12T11:07:46.166Z,42.37
2018-08-12T11:12:54.537Z,40.54
2018-08-12T11:18:00.510Z,40.83
2018-08-12T11:23:10.656Z,41.80
2018-08-12T11:28:21.210Z,39.62
2018-08-12T11:33:30.931Z,41.36
2018-08-12T11:38:46.702Z,41.39
2018-08-12T11:43:59.660Z,41.47
2018-08-12T11:49:12.257Z,41.61
2018-08-12T11:54:34.781Z,43.17
2018-08-12T11:59:48.649Z,43.05
2018-08-12T12:04:57.582Z,44.99
2018-08-12T12:10:03.435Z,45.80
2018-08-12T12:15:15.884Z,46.55
2018-08-12T12:20:32.083Z,46.73
2018-08-12T12:25:43.585Z,47.92
2018-08-12T12:30:53.416Z,48.01
2018-08-12T12:41:24.035Z,48.48
2018-08-12T12:46:39.527Z,48.71
2018-08-12T12:51:47.798Z,50.07
2018-08-12T12:56:56.750Z,51.30
2018-08-12T13:02:05.417Z,50.82
2018-08-12T13:07:14.745Z,49.98
2018-08-12T13:12:23.170Z,49.29
2018-08-12T13:17:29.769Z,50.59
2018-08-12T13:22:38.681Z,50.03
2018-08-12T13:27:45.658Z,49.68
2018-08-12T13:32:53.962Z,50.71
2018-08-12T13:38:03.115Z,51.82
2018-08-12T13:43:09.650Z,51.74
2018-08-12T13:48:16.371Z,51.44
2018-08-12T13:53:22.807Z,51.58
2018-08-12T13:58:26.824Z,52.18
2018-08-12T14:03:29.247Z,52.43
2018-08-12T14:08:31.498Z,52.75
2018-08-12T14:13:33.757Z,55.01
2018-08-12T14:18:36.083Z,56.21
2018-08-12T14:23:38.280Z,57.56
2018-08-12T14:28:40.498Z,57.77
2018-08-12T14:33:42.759Z,58.32
2018-08-12T14:38:45.015Z,58.72
2018-08-12T14:43:47.169Z,58.91
2018-08-12T14:48:49.354Z,58.11
2018-08-12T14:53:51.599Z,58.63
2018-08-12T14:58:54.039Z,58.10
2018-08-12T15:03:56.258Z,57.50
2018-08-12T15:08:58.460Z,56.45
2018-08-12T15:14:00.650Z,56.36
2018-08-12T15:19:03.251Z,56.23
2018-08-12T15:24:08.784Z,56.70
2018-08-12T15:29:13.452Z,56.38
2018-08-12T15:34:17.566Z,56.93
2018-08-12T15:39:20.131Z,56.66
2018-08-12T15:44:22.384Z,56.89
2018-08-12T15:49:24.541Z,57.40
2018-08-12T15:54:28.963Z,56.52
2018-08-12T15:59:31.339Z,56.44
2018-08-12T16:04:34.885Z,56.59
2018-08-12T16:09:38.312Z,56.41
2018-08-12T16:14:42.228Z,56.25
2018-08-12T16:19:45.729Z,56.33
2018-08-12T16:24:49.306Z,56.63
2018-08-12T16:29:52.968Z,56.10
2018-08-12T16:34:56.141Z,55.37
2018-08-12T16:39:59.579Z,55.21
2018-08-12T16:45:03.892Z,54.69
2018-08-12T16:50:08.579Z,54.56
2018-08-12T16:55:14.061Z,54.39
2018-08-12T17:00:23.222Z,54.40
2018-08-12T17:05:25.521Z,54.49
2018-08-12T17:10:27.742Z,55.38
2018-08-12T17:15:29.951Z,55.13
2018-08-12T17:20:32.272Z,55.14
2018-08-12T17:25:34.533Z,55.03
2018-08-12T17:30:36.787Z,55.46
2018-08-12T17:35:42.379Z,54.84
2018-08-12T17:40:45.944Z,55.05
2018-08-12T17:45:48.152Z,54.45
2018-08-12T17:50:50.396Z,53.95
2018-08-12T17:55:52.685Z,54.35
2018-08-12T18:00:54.930Z,54.74
2018-08-12T18:05:57.140Z,54.50
2018-08-12T18:10:59.332Z,55.16
2018-08-12T18:16:01.551Z,55.81
2018-08-12T18:21:03.747Z,55.74
2018-08-12T18:26:06.048Z,54.81
2018-08-12T18:31:08.331Z,55.04
2018-08-12T18:36:10.539Z,55.44
2018-08-12T18:41:12.820Z,55.82
2018-08-12T18:46:15.127Z,56.23
2018-08-12T18:51:17.418Z,55.83
2018-08-12T18:56:19.684Z,56.05
2018-08-12T19:01:21.992Z,56.23
2018-08-12T19:06:24.196Z,56.29
2018-08-12T19:11:26.449Z,56.75
2018-08-12T19:16:28.679Z,57.04
2018-08-12T19:21:30.922Z,57.92
2018-08-12T19:26:33.183Z,57.93
2018-08-12T19:31:35.383Z,58.47
2018-08-12T19:36:37.583Z,58.49
2018-08-12T19:41:39.851Z,59.33
2018-08-12T19:46:42.107Z,59.06
2018-08-12T19:51:46.375Z,59.60
2018-08-12T19:56:51.002Z,59.07
2018-08-12T20:01:55.351Z,59.85
2018-08-12T20:06:59.477Z,59.49
2018-08-12T20:12:04.339Z,58.91
2018-08-12T20:17:08.604Z,59.41
2018-08-12T20:22:15.868Z,59.41
2018-08-12T20:27:21.417Z,59.31
2018-08-12T20:32:23.840Z,59.21
2018-08-12T20:37:26.442Z,59.61
2018-08-12T20:42:28.666Z,59.59
2018-08-12T20:47:30.864Z,59.12
2018-08-12T20:52:33.090Z,59.84
2018-08-12T20:57:35.280Z,60.54
2018-08-12T21:02:37.590Z,61.56
2018-08-12T21:07:41.028Z,62.51
2018-08-12T21:12:43.210Z,62.78
2018-08-12T21:17:45.331Z,64.57
2018-08-12T21:22:47.563Z,64.03
2018-08-12T21:27:49.757Z,65.03
2018-08-12T21:32:51.951Z,65.41
2018-08-12T21:37:54.142Z,65.86
2018-08-12T21:42:56.385Z,66.29
2018-08-12T21:47:58.596Z,66.84
2018-08-12T21:53:00.822Z,67.38
2018-08-12T21:58:02.975Z,66.72
2018-08-12T22:03:05.523Z,67.43
2018-08-12T22:08:08.184Z,67.77
2018-08-12T22:13:10.454Z,67.17
2018-08-12T22:18:12.957Z,67.67
2018-08-12T22:23:15.167Z,67.53
2018-08-12T22:28:19.177Z,67.45
2018-08-12T22:33:25.156Z,66.43
2018-08-12T22:38:29.323Z,66.71
2018-08-12T22:43:34.641Z,66.65
2018-08-12T22:48:39.225Z,67.55
2018-08-12T22:53:43.835Z,67.68
2018-08-12T22:58:46.509Z,68.66
2018-08-12T23:03:49.062Z,69.00
2018-08-12T23:08:51.227Z,69.85
2018-08-12T23:13:53.398Z,61.37
2018-08-12T23:18:58.011Z,61.04
2018-08-12T23:24:01.918Z,61.58
2018-08-12T23:29:05.489Z,61.59
2018-08-12T23:34:08.968Z,61.35
2018-08-12T23:39:12.929Z,61.63
2018-08-12T23:44:16.498Z,62.07
2018-08-12T23:49:18.841Z,62.06
2018-08-12T23:54:20.974Z,61.98
2018-08-12T23:59:23.198Z,62.02
